createdAt,value
2023-04-30T00:00:34.307Z,102232.72
2023-04-30T00:03:01.992Z,102230.97
2023-04-30T00:05:29.558Z,102231.84
2023-04-30T00:07:57.278Z,102223.97
2023-04-30T00:10:24.828Z,102226.59
2023-04-30T00:12:52.404Z,102228.31
2023-04-30T00:15:20.263Z,102234.44
2023-04-30T00:17:47.836Z,102234.41
2023-04-30T00:20:16.703Z,102230.06
2023-04-30T00:22:44.469Z,102228.28
2023-04-30T00:25:12.029Z,102226.53
2023-04-30T00:27:40.869Z,102231.75
2023-04-30T00:30:09.578Z,102228.22
2023-04-30T00:32:37.145Z,102235.22
2023-04-30T00:35:05.792Z,102227.34
2023-04-30T00:37:33.943Z,102237.81
2023-04-30T00:40:01.461Z,102236.06
2023-04-30T00:42:29.620Z,102231.69
2023-04-30T00:44:57.170Z,102237.81
2023-04-30T00:47:25.932Z,102232.56
2023-04-30T00:49:53.934Z,102238.66
2023-04-30T00:52:21.792Z,102230.78
2023-04-30T00:54:50.614Z,102240.34
2023-04-30T00:57:18.412Z,102239.47
2023-04-30T00:59:46.331Z,102235.97
2023-04-30T01:02:13.849Z,102235.06
2023-04-30T01:04:41.553Z,102246.41
2023-04-30T01:07:09.513Z,102242.03
2023-04-30T01:09:37.314Z,102235.03
2023-04-30T01:12:26.816Z,102239.38
2023-04-30T01:15:29.493Z,102240.22
2023-04-30T01:18:10.109Z,102241.94
2023-04-30T01:20:48.621Z,102250.63
2023-04-30T01:23:34.393Z,102239.22
2023-04-30T01:26:15.865Z,102246.13
2023-04-30T01:28:46.291Z,102246.97
2023-04-30T01:31:20.734Z,102247.81
2023-04-30T01:33:48.360Z,102242.53
2023-04-30T01:36:34.920Z,102239.88
2023-04-30T01:39:31.864Z,102239.84
2023-04-30T01:42:22.872Z,102238.94
2023-04-30T01:45:06.720Z,102237.16
2023-04-30T01:47:46.440Z,102242.34
2023-04-30T01:50:48.545Z,102244.09
2023-04-30T01:53:24.887Z,102240.53
2023-04-30T01:56:01.379Z,102244.03
2023-04-30T01:58:31.945Z,102237.88
2023-04-30T02:00:59.656Z,102247.44
2023-04-30T02:03:27.521Z,102245.66
2023-04-30T02:05:56.219Z,102244.75
2023-04-30T02:08:23.862Z,102256.06
2023-04-30T02:10:51.478Z,102253.41
2023-04-30T02:13:20.069Z,102250.75
2023-04-30T02:15:47.814Z,102252.47
2023-04-30T02:18:15.534Z,102248.06
2023-04-30T02:20:43.569Z,102250.66
2023-04-30T02:23:11.274Z,102244.53
2023-04-30T02:25:39.191Z,102246.25
2023-04-30T02:28:07.482Z,102251.44
2023-04-30T02:30:34.946Z,102246.19
2023-04-30T02:33:03.646Z,102241.78
2023-04-30T02:35:31.242Z,102239.13
2023-04-30T02:37:58.811Z,102235.63
2023-04-30T02:40:26.587Z,102242.56
2023-04-30T02:42:56.281Z,102236.44
2023-04-30T02:45:23.814Z,102239.03
2023-04-30T02:47:51.532Z,102232.91
2023-04-30T02:50:19.349Z,102235.53
2023-04-30T02:52:49.677Z,102232.03
2023-04-30T02:55:17.374Z,102235.47
2023-04-30T02:57:45.302Z,102227.63
2023-04-30T03:00:13.532Z,102230.19
2023-04-30T03:02:41.680Z,102243.25
2023-04-30T03:05:09.572Z,102241.50
2023-04-30T03:07:37.372Z,102238.88
2023-04-30T03:10:05.666Z,102234.50
2023-04-30T03:12:34.373Z,102240.56
2023-04-30T03:15:01.973Z,102242.25
2023-04-30T03:17:29.707Z,102243.00
2023-04-30T03:19:57.547Z,102237.72
2023-04-30T03:22:26.701Z,102240.31
2023-04-30T03:24:54.268Z,102237.72
2023-04-30T03:27:22.757Z,102234.19
2023-04-30T03:29:50.338Z,102235.94
2023-04-30T03:32:18.154Z,102235.06
2023-04-30T03:34:46.205Z,102238.53
2023-04-30T03:37:13.873Z,102231.59
2023-04-30T03:39:41.372Z,102240.22
2023-04-30T03:42:08.993Z,102240.19
2023-04-30T03:44:36.759Z,102244.53
2023-04-30T03:47:04.567Z,102248.00
2023-04-30T03:49:32.541Z,102250.63
2023-04-30T03:52:01.134Z,102255.81
2023-04-30T03:54:28.851Z,102247.09
2023-04-30T03:56:56.989Z,102245.34
2023-04-30T03:59:25.747Z,102251.47
2023-04-30T04:01:53.843Z,102248.81
2023-04-30T04:04:21.715Z,102251.41
2023-04-30T04:06:49.369Z,102248.75
2023-04-30T04:09:20.045Z,102249.63
2023-04-30T04:11:47.545Z,102241.78
2023-04-30T04:14:15.051Z,102243.53
2023-04-30T04:16:43.096Z,102240.94
2023-04-30T04:19:12.797Z,102241.75
2023-04-30T04:21:40.457Z,102242.59
2023-04-30T04:24:14.728Z,102241.72
2023-04-30T04:26:42.759Z,102240.84
2023-04-30T04:29:12.284Z,102240.00
2023-04-30T04:31:42.857Z,102246.09
2023-04-30T04:34:11.644Z,102255.66
2023-04-30T04:36:39.492Z,102245.22
2023-04-30T04:39:07.204Z,102244.34
2023-04-30T04:41:37.977Z,102246.13
2023-04-30T04:44:07.881Z,102258.31
2023-04-30T04:46:38.585Z,102245.25
2023-04-30T04:49:06.489Z,102256.59
2023-04-30T04:51:34.593Z,102266.22
2023-04-30T04:54:02.196Z,102262.75
2023-04-30T04:56:29.787Z,102264.50
2023-04-30T04:58:58.350Z,102262.81
2023-04-30T05:01:28.062Z,102262.84
2023-04-30T05:03:55.745Z,102265.53
2023-04-30T05:06:23.569Z,102266.44
2023-04-30T05:08:51.123Z,102269.94
2023-04-30T05:11:18.627Z,102268.22
2023-04-30T05:13:47.605Z,102277.84
2023-04-30T05:16:15.132Z,102277.94
2023-04-30T05:18:42.699Z,102282.38
2023-04-30T05:21:10.738Z,102282.47
2023-04-30T05:23:38.372Z,102286.91
2023-04-30T05:26:06.043Z,102284.34
2023-04-30T05:28:34.060Z,102279.16
2023-04-30T05:31:01.887Z,102277.50
2023-04-30T05:33:29.350Z,102280.19
2023-04-30T05:35:57.049Z,102277.63
2023-04-30T05:38:24.541Z,102270.72
2023-04-30T05:40:52.173Z,102277.78
2023-04-30T05:43:19.644Z,102271.75
2023-04-30T05:45:47.278Z,102271.81
2023-04-30T05:48:14.833Z,102271.03
2023-04-30T05:50:43.675Z,102272.81
2023-04-30T05:53:11.286Z,102272.03
2023-04-30T05:55:38.853Z,102272.09
2023-04-30T05:58:06.522Z,102275.66
2023-04-30T06:00:34.082Z,102263.50
2023-04-30T06:03:02.109Z,102260.97
2023-04-30T06:05:29.907Z,102255.78
2023-04-30T06:07:57.413Z,102256.72
2023-04-30T06:10:25.562Z,102267.25
2023-04-30T06:12:53.323Z,102269.06
2023-04-30T06:15:20.842Z,102269.13
2023-04-30T06:17:48.378Z,102266.56
2023-04-30T06:20:16.367Z,102265.75
2023-04-30T06:22:47.074Z,102274.53
2023-04-30T06:25:14.749Z,102269.34
2023-04-30T06:27:42.240Z,102271.13
2023-04-30T06:30:10.156Z,102271.19
2023-04-30T06:32:37.700Z,102269.53
2023-04-30T06:35:06.395Z,102261.72
2023-04-30T06:37:37.518Z,102268.75
2023-04-30T06:40:06.560Z,102268.78
2023-04-30T06:42:35.256Z,102263.53
2023-04-30T06:45:04.257Z,102263.53
2023-04-30T06:47:34.927Z,102270.53
2023-04-30T06:50:02.896Z,102272.25
2023-04-30T06:52:31.176Z,102272.22
2023-04-30T06:54:58.632Z,102268.66
2023-04-30T06:57:27.348Z,102278.25
2023-04-30T06:59:55.803Z,102274.66
2023-04-30T07:02:23.647Z,102272.81
2023-04-30T07:04:51.610Z,102277.09
2023-04-30T07:07:19.146Z,102276.97
2023-04-30T07:09:47.037Z,102275.13
2023-04-30T07:12:15.645Z,102273.19
2023-04-30T07:14:44.531Z,102274.78
2023-04-30T07:17:12.101Z,102279.91
2023-04-30T07:19:39.747Z,102269.22
2023-04-30T07:22:07.209Z,102270.84
2023-04-30T07:24:34.808Z,102270.75
2023-04-30T07:27:03.898Z,102277.69
2023-04-30T07:29:31.710Z,102277.59
2023-04-30T07:31:59.431Z,102270.31
2023-04-30T07:34:27.947Z,102277.06
2023-04-30T07:36:55.524Z,102272.47
2023-04-30T07:39:23.261Z,102268.78
2023-04-30T07:41:50.795Z,102278.19
2023-04-30T07:44:19.094Z,102273.50
2023-04-30T07:46:47.626Z,102270.53
2023-04-30T07:49:15.249Z,102273.72
2023-04-30T07:51:44.882Z,102270.91
2023-04-30T07:54:12.585Z,102268.09
2023-04-30T07:56:40.352Z,102267.81
2023-04-30T07:59:07.939Z,102265.81
2023-04-30T08:01:35.571Z,102269.94
2023-04-30T08:04:03.373Z,102276.03
2023-04-30T08:06:31.832Z,102276.03
2023-04-30T08:08:59.533Z,102280.47
2023-04-30T08:11:27.431Z,102281.06
2023-04-30T08:13:56.303Z,102278.25
2023-04-30T08:16:23.799Z,102278.88
2023-04-30T08:18:51.624Z,102276.34
2023-04-30T08:21:19.330Z,102280.75
2023-04-30T08:23:47.431Z,102275.34
2023-04-30T08:26:14.976Z,102272.56
2023-04-30T08:28:42.630Z,102279.44
2023-04-30T08:31:10.394Z,102282.78
2023-04-30T08:33:38.067Z,102283.72
2023-04-30T08:36:05.936Z,102282.09
2023-04-30T08:38:33.390Z,102286.53
2023-04-30T08:41:13.803Z,102278.53
2023-04-30T08:43:44.698Z,102276.59
2023-04-30T08:48:41.568Z,102279.13
2023-04-30T08:51:09.361Z,102279.63
2023-04-30T08:53:38.512Z,102268.94
2023-04-30T08:56:06.757Z,102271.59
2023-04-30T08:58:34.219Z,102266.34
2023-04-30T09:01:03.516Z,102265.66
2023-04-30T09:03:32.389Z,102265.81
2023-04-30T09:06:00.057Z,102271.84
2023-04-30T09:08:48.202Z,102268.03
2023-04-30T09:11:32.037Z,102268.94
2023-04-30T09:14:01.997Z,102267.97
2023-04-30T09:16:51.401Z,102258.13
2023-04-30T09:19:31.278Z,102253.56
2023-04-30T09:21:59.678Z,102254.25
2023-04-30T09:24:45.310Z,102251.19
2023-04-30T09:27:24.366Z,102254.50
2023-04-30T09:29:52.125Z,102253.28
2023-04-30T09:32:20.257Z,102257.28
2023-04-30T09:34:49.127Z,102249.06
2023-04-30T09:37:16.892Z,102242.75
2023-04-30T09:39:55.295Z,102246.25
2023-04-30T09:42:23.226Z,102240.34
2023-04-30T09:44:53.783Z,102247.41
2023-04-30T09:47:21.505Z,102250.75
2023-04-30T09:49:54.672Z,102247.19
2023-04-30T09:52:23.079Z,102238.25
2023-04-30T09:54:51.858Z,102235.56
2023-04-30T09:57:23.724Z,102236.19
2023-04-30T09:59:53.716Z,102236.84
2023-04-30T10:02:24.165Z,102227.91
2023-04-30T10:04:58.391Z,102226.97
2023-04-30T10:07:36.495Z,102223.28
2023-04-30T10:10:11.103Z,102222.28
2023-04-30T10:13:01.840Z,102220.13
2023-04-30T10:15:39.721Z,102214.44
2023-04-30T10:18:17.759Z,102214.97
2023-04-30T10:20:48.918Z,102208.56
2023-04-30T10:23:17.414Z,102214.22
2023-04-30T10:25:46.156Z,102217.38
2023-04-30T10:28:16.168Z,102212.56
2023-04-30T10:30:44.362Z,102216.50
2023-04-30T10:33:16.685Z,102209.34
2023-04-30T10:35:56.996Z,102212.19
2023-04-30T10:38:28.240Z,102210.28
2023-04-30T10:41:03.414Z,102199.94
2023-04-30T10:43:33.073Z,102203.00
2023-04-30T10:46:04.216Z,102199.38
2023-04-30T10:48:35.965Z,102194.91
2023-04-30T10:51:04.139Z,102193.25
2023-04-30T10:53:32.519Z,102188.88
2023-04-30T10:56:08.939Z,102188.53
2023-04-30T10:58:39.823Z,102184.72
2023-04-30T11:01:17.752Z,102189.47
2023-04-30T11:04:11.037Z,102181.88
2023-04-30T11:07:07.562Z,102178.03
2023-04-30T11:09:40.271Z,102179.38
2023-04-30T11:12:14.512Z,102178.94
2023-04-30T11:14:45.333Z,102178.00
2023-04-30T11:17:23.177Z,102165.41
2023-04-30T11:19:53.731Z,102160.91
2023-04-30T11:22:24.706Z,102162.06
2023-04-30T11:24:55.378Z,102165.28
2023-04-30T11:27:26.109Z,102162.53
2023-04-30T11:29:56.196Z,102162.78
2023-04-30T11:32:31.791Z,102153.75
2023-04-30T11:35:02.129Z,102152.72
2023-04-30T11:37:32.670Z,102148.09
2023-04-30T11:40:04.004Z,102143.16
2023-04-30T11:42:34.698Z,102136.31
2023-04-30T11:45:11.427Z,102136.06
2023-04-30T11:47:49.215Z,102138.66
2023-04-30T11:50:27.268Z,102135.56
2023-04-30T11:52:58.541Z,102127.19
2023-04-30T11:55:28.249Z,102122.66
2023-04-30T11:57:59.420Z,102128.00
2023-04-30T12:00:30.433Z,102115.88
2023-04-30T12:03:03.826Z,102121.06
2023-04-30T12:05:31.991Z,102119.03
2023-04-30T12:08:09.094Z,102124.63
2023-04-30T12:10:37.078Z,102110.38
2023-04-30T12:13:04.879Z,102114.00
2023-04-30T12:15:33.362Z,102116.59
2023-04-30T12:18:13.803Z,102127.72
2023-04-30T12:20:42.633Z,102116.41
2023-04-30T12:23:11.675Z,102109.47
2023-04-30T12:25:43.773Z,102106.59
2023-04-30T12:28:11.969Z,102104.75
2023-04-30T12:30:39.709Z,102109.00
2023-04-30T12:33:10.945Z,102109.69
2023-04-30T12:35:43.487Z,102110.28
2023-04-30T12:38:15.913Z,102101.81
2023-04-30T12:40:48.395Z,102098.56
2023-04-30T12:43:18.016Z,102094.03
2023-04-30T12:46:03.862Z,102100.28
2023-04-30T12:48:47.208Z,102088.81
2023-04-30T12:51:20.109Z,102084.94
2023-04-30T12:53:47.891Z,102081.06
2023-04-30T12:56:19.681Z,102084.72
2023-04-30T12:58:51.165Z,102088.16
2023-04-30T13:01:23.037Z,102086.75
2023-04-30T13:03:52.823Z,102081.50
2023-04-30T13:06:24.038Z,102079.75
2023-04-30T13:08:58.473Z,102068.38
2023-04-30T13:11:27.347Z,102070.50
2023-04-30T13:13:55.924Z,102070.78
2023-04-30T13:16:26.740Z,102066.59
2023-04-30T13:18:55.071Z,102062.16
2023-04-30T13:21:24.737Z,102053.06
2023-04-30T13:23:54.073Z,102062.63
2023-04-30T13:26:23.340Z,102061.13
2023-04-30T13:28:51.480Z,102058.88
2023-04-30T13:31:19.539Z,102052.56
2023-04-30T13:33:47.393Z,102042.00
2023-04-30T13:36:15.601Z,102038.66
2023-04-30T13:38:43.611Z,102043.09
2023-04-30T13:41:13.503Z,102043.34
2023-04-30T13:43:42.816Z,102038.66
2023-04-30T13:46:12.343Z,102037.28
2023-04-30T13:48:40.030Z,102042.63
2023-04-30T13:51:07.791Z,102029.75
2023-04-30T13:53:37.422Z,102024.84
2023-04-30T13:56:05.941Z,102022.63
2023-04-30T13:58:33.641Z,102026.41
2023-04-30T14:01:01.400Z,102018.50
2023-04-30T14:03:29.346Z,102025.38
2023-04-30T14:05:58.379Z,102021.25
2023-04-30T14:08:26.053Z,102007.66
2023-04-30T14:10:53.845Z,102003.41
2023-04-30T14:13:21.518Z,102002.56
2023-04-30T14:15:49.309Z,102006.63
2023-04-30T14:18:17.097Z,102007.28
2023-04-30T14:20:44.694Z,101999.31
2023-04-30T14:23:12.737Z,101996.91
2023-04-30T14:25:40.612Z,101993.97
2023-04-30T14:28:08.326Z,101997.25
2023-04-30T14:30:36.061Z,101993.13
2023-04-30T14:33:03.792Z,102004.81
2023-04-30T14:35:31.439Z,101990.19
2023-04-30T14:37:59.213Z,101993.34
2023-04-30T14:40:26.930Z,101988.31
2023-04-30T14:42:54.619Z,102000.34
2023-04-30T14:45:22.421Z,101996.63
2023-04-30T14:47:50.096Z,101985.03
2023-04-30T14:50:18.063Z,101986.91
2023-04-30T14:52:47.163Z,101981.22
2023-04-30T14:55:15.061Z,101982.91
2023-04-30T14:57:44.053Z,101986.00
2023-04-30T15:00:12.422Z,101979.38
2023-04-30T15:02:40.332Z,101979.19
2023-04-30T15:05:08.704Z,101972.53
2023-04-30T15:07:36.859Z,101960.34
2023-04-30T15:10:06.601Z,101962.78
2023-04-30T15:12:35.672Z,101956.63
2023-04-30T15:15:06.520Z,101948.16
2023-04-30T15:17:36.886Z,101947.22
2023-04-30T15:20:06.657Z,101947.75
2023-04-30T15:22:34.593Z,101948.53
2023-04-30T15:25:02.403Z,101944.09
2023-04-30T15:27:31.776Z,101956.56
2023-04-30T15:30:00.314Z,101936.59
2023-04-30T15:32:28.366Z,101938.13
2023-04-30T15:34:55.995Z,101938.38
2023-04-30T15:37:23.665Z,101936.91
2023-04-30T15:39:51.506Z,101933.94
2023-04-30T15:42:19.233Z,101931.44
2023-04-30T15:44:47.051Z,101945.25
2023-04-30T15:47:14.856Z,101942.50
2023-04-30T15:49:43.683Z,101937.88
2023-04-30T15:52:11.318Z,101928.38
2023-04-30T15:54:40.615Z,101928.75
2023-04-30T15:57:08.576Z,101925.38
2023-04-30T15:59:36.293Z,101931.88
2023-04-30T16:02:04.274Z,101923.69
2023-04-30T16:04:32.020Z,101925.25
2023-04-30T16:07:01.289Z,101907.44
2023-04-30T16:09:31.615Z,101906.69
2023-04-30T16:11:59.686Z,101903.69
2023-04-30T16:14:27.584Z,101902.94
2023-04-30T16:16:55.285Z,101897.78
2023-04-30T16:19:23.013Z,101901.66
2023-04-30T16:21:51.041Z,101901.25
2023-04-30T16:24:18.664Z,101902.53
2023-04-30T16:26:46.347Z,101903.56
2023-04-30T16:29:14.147Z,101902.03
2023-04-30T16:31:42.157Z,101893.63
2023-04-30T16:34:12.117Z,101897.59
2023-04-30T16:36:40.866Z,101895.09
2023-04-30T16:39:08.550Z,101894.44
2023-04-30T16:41:36.449Z,101890.47
2023-04-30T16:44:04.266Z,101893.25
2023-04-30T16:46:32.076Z,101894.41
2023-04-30T16:48:59.965Z,101891.22
2023-04-30T16:51:27.979Z,101882.13
2023-04-30T16:53:55.821Z,101878.81
2023-04-30T16:56:23.621Z,101882.78
2023-04-30T16:58:51.349Z,101883.88
2023-04-30T17:01:19.219Z,101872.88
2023-04-30T17:03:47.127Z,101880.66
2023-04-30T17:06:15.174Z,101883.13
2023-04-30T17:08:42.777Z,101875.47
2023-04-30T17:11:10.696Z,101873.53
2023-04-30T17:13:38.623Z,101868.66
2023-04-30T17:16:06.780Z,101870.94
2023-04-30T17:18:34.495Z,101859.41
2023-04-30T17:21:02.381Z,101859.94
2023-04-30T17:23:30.022Z,101855.69
2023-04-30T17:25:58.164Z,101853.06
2023-04-30T17:28:26.077Z,101852.28
2023-04-30T17:30:53.824Z,101854.44
2023-04-30T17:33:21.448Z,101857.34
2023-04-30T17:35:49.204Z,101851.84
2023-04-30T17:38:16.813Z,101853.31
2023-04-30T17:40:44.597Z,101852.50
2023-04-30T17:43:12.248Z,101859.19
2023-04-30T17:45:39.883Z,101862.19
2023-04-30T17:48:08.927Z,101858.88
2023-04-30T17:50:37.126Z,101856.56
2023-04-30T17:53:05.028Z,101863.88
2023-04-30T17:55:33.176Z,101862.72
2023-04-30T17:58:00.989Z,101851.03
2023-04-30T18:00:28.783Z,101854.44
2023-04-30T18:02:56.601Z,101852.47
2023-04-30T18:05:24.266Z,101851.94
2023-04-30T18:07:51.896Z,101852.25
2023-04-30T18:10:19.753Z,101847.19
2023-04-30T18:12:47.551Z,101849.47
2023-04-30T18:15:15.219Z,101844.75
2023-04-30T18:17:43.084Z,101841.69
2023-04-30T18:20:12.376Z,101847.50
2023-04-30T18:22:43.563Z,101840.16
2023-04-30T18:25:13.399Z,101841.63
2023-04-30T18:27:41.766Z,101842.91
2023-04-30T18:30:12.711Z,101843.25
2023-04-30T18:32:41.662Z,101845.44
2023-04-30T18:35:10.363Z,101837.00
2023-04-30T18:37:38.049Z,101835.56
2023-04-30T18:40:06.932Z,101830.47
2023-04-30T18:42:34.731Z,101836.03
2023-04-30T18:45:04.100Z,101836.25
2023-04-30T18:47:33.017Z,101836.47
2023-04-30T18:50:00.769Z,101833.34
2023-04-30T18:52:28.766Z,101834.63
2023-04-30T18:54:56.497Z,101830.59
2023-04-30T18:57:24.371Z,101827.47
2023-04-30T18:59:52.885Z,101829.63
2023-04-30T19:02:21.914Z,101815.88
2023-04-30T19:04:50.497Z,101820.69
2023-04-30T19:07:18.734Z,101823.69
2023-04-30T19:09:48.412Z,101828.28
2023-04-30T19:12:16.156Z,101826.78
2023-04-30T19:14:45.173Z,101827.91
2023-04-30T19:17:14.337Z,101821.06
2023-04-30T19:19:43.591Z,101825.66
2023-04-30T19:22:11.775Z,101823.25
2023-04-30T19:24:39.623Z,101827.00
2023-04-30T19:27:07.384Z,101830.69
2023-04-30T19:29:37.839Z,101837.84
2023-04-30T19:32:06.253Z,101836.31
2023-04-30T19:34:34.617Z,101840.03
2023-04-30T19:37:02.397Z,101836.78
2023-04-30T19:39:31.715Z,101837.00
2023-04-30T19:41:59.617Z,101844.22
2023-04-30T19:44:29.349Z,101839.94
2023-04-30T19:46:57.701Z,101835.56
2023-04-30T19:49:26.593Z,101836.50
2023-04-30T19:51:54.974Z,101838.34
2023-04-30T19:54:22.597Z,101827.88
2023-04-30T19:56:52.889Z,101837.66
2023-04-30T19:59:20.849Z,101831.59
2023-04-30T20:01:48.596Z,101832.59
2023-04-30T20:04:16.665Z,101830.00
2023-04-30T20:06:44.962Z,101831.00
2023-04-30T20:09:12.868Z,101831.09
2023-04-30T20:11:40.487Z,101831.22
2023-04-30T20:14:08.251Z,101836.59
2023-04-30T20:16:36.143Z,101826.94
2023-04-30T20:19:04.315Z,101822.63
2023-04-30T20:21:32.090Z,101828.03
2023-04-30T20:24:00.199Z,101827.31
2023-04-30T20:26:28.400Z,101826.56
2023-04-30T20:28:56.404Z,101821.38
2023-04-30T20:31:24.879Z,101817.91
2023-04-30T20:33:52.550Z,101820.66
2023-04-30T20:36:20.347Z,101817.22
2023-04-30T20:38:48.263Z,101812.03
2023-04-30T20:41:16.001Z,101808.59
2023-04-30T20:43:43.678Z,101810.44
2023-04-30T20:46:13.865Z,101811.41
2023-04-30T20:48:41.537Z,101815.91
2023-04-30T20:51:10.382Z,101816.09
2023-04-30T20:53:38.110Z,101808.31
2023-04-30T20:56:05.900Z,101809.31
2023-04-30T20:58:33.571Z,101808.56
2023-04-30T21:01:01.341Z,101805.16
2023-04-30T21:03:29.141Z,101807.88
2023-04-30T21:05:56.856Z,101803.56
2023-04-30T21:08:24.864Z,101803.63
2023-04-30T21:10:52.499Z,101808.97
2023-04-30T21:13:20.761Z,101800.25
2023-04-30T21:15:52.236Z,101807.31
2023-04-30T21:18:19.963Z,101803.88
2023-04-30T21:20:47.650Z,101790.75
2023-04-30T21:23:15.482Z,101786.44
2023-04-30T21:25:43.245Z,101787.31
2023-04-30T21:28:10.920Z,101787.34
2023-04-30T21:30:38.832Z,101786.50
2023-04-30T21:33:06.529Z,101786.56
2023-04-30T21:35:34.467Z,101780.47
2023-04-30T21:38:02.331Z,101782.25
2023-04-30T21:40:33.836Z,101781.44
2023-04-30T21:43:01.625Z,101784.09
2023-04-30T21:45:31.616Z,101782.44
2023-04-30T21:47:59.274Z,101778.13
2023-04-30T21:50:28.174Z,101779.91
2023-04-30T21:52:56.229Z,101774.72
2023-04-30T21:55:23.971Z,101780.03
2023-04-30T21:57:51.675Z,101774.81
2023-04-30T22:00:19.867Z,101768.72
2023-04-30T22:02:51.075Z,101766.22
2023-04-30T22:05:20.293Z,101766.31
2023-04-30T22:07:49.177Z,101761.94
2023-04-30T22:10:16.876Z,101769.94
2023-04-30T22:12:47.797Z,101760.34
2023-04-30T22:15:16.047Z,101761.28
2023-04-30T22:17:44.175Z,101761.34
2023-04-30T22:20:12.332Z,101760.47
2023-04-30T22:22:39.999Z,101754.31
2023-04-30T22:25:09.923Z,101749.97
2023-04-30T22:27:37.726Z,101750.84
2023-04-30T22:30:06.636Z,101750.00
2023-04-30T22:32:34.506Z,101743.88
2023-04-30T22:35:03.257Z,101741.28
2023-04-30T22:37:31.213Z,101741.34
2023-04-30T22:39:59.029Z,101732.63
2023-04-30T22:42:27.050Z,101733.56
2023-04-30T22:44:55.044Z,101726.59
2023-04-30T22:47:23.609Z,101737.16
2023-04-30T22:49:51.487Z,101728.41
2023-04-30T22:52:19.176Z,101739.81
2023-04-30T22:54:47.356Z,101728.44
2023-04-30T22:57:15.271Z,101727.59
2023-04-30T22:59:43.024Z,101731.13
2023-04-30T23:02:10.641Z,101733.78
2023-04-30T23:04:38.533Z,101725.03
2023-04-30T23:07:06.586Z,101728.53
2023-04-30T23:09:34.259Z,101724.13
2023-04-30T23:12:02.430Z,101726.75
2023-04-30T23:14:30.172Z,101718.84
2023-04-30T23:16:58.566Z,101718.03
2023-04-30T23:19:26.774Z,101716.31
2023-04-30T23:21:54.639Z,101723.28
2023-04-30T23:24:22.267Z,101718.03
2023-04-30T23:26:50.139Z,101712.75
2023-04-30T23:29:18.086Z,101711.88
2023-04-30T23:31:46.291Z,101704.91
2023-04-30T23:34:13.946Z,101699.63
2023-04-30T23:36:41.779Z,101704.00
2023-04-30T23:39:10.317Z,101704.91
2023-04-30T23:41:38.136Z,101706.69
2023-04-30T23:44:05.988Z,101692.63
2023-04-30T23:46:33.927Z,101694.41
2023-04-30T23:49:01.648Z,101685.63
2023-04-30T23:51:29.431Z,101682.97
2023-04-30T23:53:57.186Z,101679.47
2023-04-30T23:56:25.042Z,101678.59
2023-04-30T23:58:52.617Z,101676.88
